sensor_id;sensor_type;location;lat;lon;timestamp;pressure;altitude;pressure_sealevel;temperature;humidity
21828;BME280;11076;47.942;11.804;2023-05-10T00:02:55;93765.06;;;12.39;100.00
21828;BME280;11076;47.942;11.804;2023-05-10T00:07:58;93761.16;;;12.46;100.00
21828;BME280;11076;47.942;11.804;2023-05-10T00:13:00;93767.66;;;12.50;100.00
21828;BME280;11076;47.942;11.804;2023-05-10T00:18:03;93779.69;;;12.48;100.00
21828;BME280;11076;47.942;11.804;2023-05-10T00:23:05;93764.56;;;12.42;100.00
21828;BME280;11076;47.942;11.804;2023-05-10T00:28:07;93767.50;;;12.40;100.00
21828;BME280;11076;47.942;11.804;2023-05-10T00:33:12;93763.75;;;12.41;100.00
21828;BME280;11076;47.942;11.804;2023-05-10T00:38:14;93770.19;;;12.40;100.00
21828;BME280;11076;47.942;11.804;2023-05-10T00:43:17;93766.41;;;12.41;100.00
21828;BME280;11076;47.942;11.804;2023-05-10T00:48:19;93770.25;;;12.45;100.00
21828;BME280;11076;47.942;11.804;2023-05-10T00:53:22;93767.81;;;12.44;100.00
21828;BME280;11076;47.942;11.804;2023-05-10T00:58:25;93765.56;;;12.36;100.00
21828;BME280;11076;47.942;11.804;2023-05-10T01:03:30;93768.47;;;12.34;100.00
21828;BME280;11076;47.942;11.804;2023-05-10T01:08:33;93767.91;;;12.32;100.00
21828;BME280;11076;47.942;11.804;2023-05-10T01:13:39;93760.28;;;12.24;100.00
21828;BME280;11076;47.942;11.804;2023-05-10T01:18:44;93768.22;;;12.19;100.00
21828;BME280;11076;47.942;11.804;2023-05-10T01:24:23;93767.34;;;12.13;100.00
21828;BME280;11076;47.942;11.804;2023-05-10T01:30:05;93752.06;;;12.13;100.00
21828;BME280;11076;47.942;11.804;2023-05-10T01:35:42;93749.66;;;12.12;100.00
21828;BME280;11076;47.942;11.804;2023-05-10T01:46:34;93754.75;;;12.13;100.00
21828;BME280;11076;47.942;11.804;2023-05-10T01:51:45;93769.19;;;12.12;100.00
21828;BME280;11076;47.942;11.804;2023-05-10T01:56:54;93766.44;;;12.07;100.00
21828;BME280;11076;47.942;11.804;2023-05-10T02:01:59;93767.50;;;12.06;100.00
21828;BME280;11076;47.942;11.804;2023-05-10T02:07:03;93760.38;;;12.12;100.00
21828;BME280;11076;47.942;11.804;2023-05-10T02:12:07;93772.34;;;12.09;100.00
21828;BME280;11076;47.942;11.804;2023-05-10T02:17:11;93769.09;;;12.07;100.00
21828;BME280;11076;47.942;11.804;2023-05-10T02:22:16;93765.88;;;12.05;100.00
21828;BME280;11076;47.942;11.804;2023-05-10T02:27:19;93762.63;;;12.03;100.00
21828;BME280;11076;47.942;11.804;2023-05-10T02:32:24;93762.31;;;12.00;100.00
21828;BME280;11076;47.942;11.804;2023-05-10T02:37:27;93763.03;;;11.95;100.00
21828;BME280;11076;47.942;11.804;2023-05-10T02:42:33;93761.06;;;11.90;100.00
21828;BME280;11076;47.942;11.804;2023-05-10T02:47:38;93757.59;;;11.90;100.00
21828;BME280;11076;47.942;11.804;2023-05-10T02:52:50;93762.94;;;11.90;100.00
21828;BME280;11076;47.942;11.804;2023-05-10T02:57:59;93762.44;;;11.93;100.00
21828;BME280;11076;47.942;11.804;2023-05-10T03:03:02;93769.69;;;11.92;100.00
21828;BME280;11076;47.942;11.804;2023-05-10T03:08:04;93761.31;;;11.89;100.00
21828;BME280;11076;47.942;11.804;2023-05-10T03:19:24;93783.22;;;11.86;100.00
21828;BME280;11076;47.942;11.804;2023-05-10T03:24:22;93780.53;;;11.86;100.00
21828;BME280;11076;47.942;11.804;2023-05-10T03:29:26;93788.66;;;11.91;100.00
21828;BME280;11076;47.942;11.804;2023-05-10T03:34:30;93785.41;;;11.89;100.00
21828;BME280;11076;47.942;11.804;2023-05-10T03:39:33;93784.81;;;11.87;100.00
21828;BME280;11076;47.942;11.804;2023-05-10T03:44:36;93791.81;;;11.88;100.00
21828;BME280;11076;47.942;11.804;2023-05-10T03:49:39;93791.81;;;11.88;100.00
21828;BME280;11076;47.942;11.804;2023-05-10T03:54:42;93797.78;;;11.90;100.00
21828;BME280;11076;47.942;11.804;2023-05-10T03:59:44;93788.91;;;11.89;100.00
21828;BME280;11076;47.942;11.804;2023-05-10T04:04:47;93801.94;;;11.86;100.00
21828;BME280;11076;47.942;11.804;2023-05-10T04:09:50;93806.16;;;11.82;100.00
21828;BME280;11076;47.942;11.804;2023-05-10T04:14:53;93801.13;;;11.85;100.00
21828;BME280;11076;47.942;11.804;2023-05-10T04:19:55;93806.25;;;11.87;100.00
21828;BME280;11076;47.942;11.804;2023-05-10T04:24:57;93811.16;;;11.90;100.00
21828;BME280;11076;47.942;11.804;2023-05-10T04:30:00;93816.34;;;11.97;100.00
21828;BME280;11076;47.942;11.804;2023-05-10T04:35:03;93821.47;;;11.98;100.00
21828;BME280;11076;47.942;11.804;2023-05-10T04:40:07;93809.69;;;11.99;100.00
21828;BME280;11076;47.942;11.804;2023-05-10T04:45:09;93822.06;;;12.00;100.00
21828;BME280;11076;47.942;11.804;2023-05-10T04:50:12;93816.75;;;12.05;100.00
21828;BME280;11076;47.942;11.804;2023-05-10T04:55:14;93828.44;;;11.99;100.00
21828;BME280;11076;47.942;11.804;2023-05-10T05:00:17;93829.59;;;12.03;100.00
21828;BME280;11076;47.942;11.804;2023-05-10T05:05:19;93825.94;;;12.09;100.00
21828;BME280;11076;47.942;11.804;2023-05-10T05:10:22;93826.03;;;12.14;100.00
21828;BME280;11076;47.942;11.804;2023-05-10T05:15:24;93827.28;;;12.24;100.00
21828;BME280;11076;47.942;11.804;2023-05-10T05:20:27;93834.25;;;12.25;100.00
21828;BME280;11076;47.942;11.804;2023-05-10T05:25:29;93837.34;;;12.17;100.00
21828;BME280;11076;47.942;11.804;2023-05-10T05:30:31;93850.16;;;12.14;100.00
21828;BME280;11076;47.942;11.804;2023-05-10T05:35:34;93842.69;;;12.00;100.00
21828;BME280;11076;47.942;11.804;2023-05-10T05:40:36;93861.44;;;11.88;100.00
21828;BME280;11076;47.942;11.804;2023-05-10T05:45:39;93861.16;;;12.01;100.00
21828;BME280;11076;47.942;11.804;2023-05-10T05:50:41;93859.22;;;11.97;100.00
21828;BME280;11076;47.942;11.804;2023-05-10T05:55:57;93878.50;;;12.10;100.00
21828;BME280;11076;47.942;11.804;2023-05-10T06:01:00;93868.16;;;12.02;100.00
21828;BME280;11076;47.942;11.804;2023-05-10T06:06:03;93875.13;;;12.03;100.00
21828;BME280;11076;47.942;11.804;2023-05-10T06:11:06;93886.63;;;12.16;100.00
21828;BME280;11076;47.942;11.804;2023-05-10T06:16:08;93888.63;;;12.08;100.00
21828;BME280;11076;47.942;11.804;2023-05-10T06:21:10;93905.34;;;11.87;100.00
21828;BME280;11076;47.942;11.804;2023-05-10T06:26:13;93919.84;;;11.74;100.00
21828;BME280;11076;47.942;11.804;2023-05-10T06:31:15;93923.00;;;11.47;100.00
21828;BME280;11076;47.942;11.804;2023-05-10T06:36:18;93926.19;;;11.21;100.00
21828;BME280;11076;47.942;11.804;2023-05-10T06:41:20;93934.00;;;11.22;100.00
21828;BME280;11076;47.942;11.804;2023-05-10T06:46:24;93936.91;;;11.21;100.00
21828;BME280;11076;47.942;11.804;2023-05-10T06:51:26;93930.25;;;11.23;100.00
21828;BME280;11076;47.942;11.804;2023-05-10T06:56:29;93930.47;;;11.33;100.00
21828;BME280;11076;47.942;11.804;2023-05-10T07:01:31;93931.53;;;11.32;100.00
21828;BME280;11076;47.942;11.804;2023-05-10T07:06:33;93934.09;;;11.39;100.00
21828;BME280;11076;47.942;11.804;2023-05-10T07:11:36;93930.81;;;11.49;100.00
21828;BME280;11076;47.942;11.804;2023-05-10T07:16:39;93939.19;;;11.52;100.00
21828;BME280;11076;47.942;11.804;2023-05-10T07:21:41;93952.53;;;11.76;100.00
21828;BME280;11076;47.942;11.804;2023-05-10T07:26:45;93944.75;;;12.61;100.00
21828;BME280;11076;47.942;11.804;2023-05-10T07:31:47;93952.75;;;13.79;100.00
21828;BME280;11076;47.942;11.804;2023-05-10T07:36:51;93944.88;;;14.44;100.00
21828;BME280;11076;47.942;11.804;2023-05-10T07:41:54;93945.06;;;14.91;100.00
21828;BME280;11076;47.942;11.804;2023-05-10T07:46:57;93941.53;;;15.18;100.00
21828;BME280;11076;47.942;11.804;2023-05-10T07:51:59;93959.72;;;15.38;100.00
21828;BME280;11076;47.942;11.804;2023-05-10T07:57:01;93948.72;;;15.45;100.00
21828;BME280;11076;47.942;11.804;2023-05-10T08:02:04;93947.44;;;15.58;99.28
21828;BME280;11076;47.942;11.804;2023-05-10T08:07:07;93951.75;;;16.06;94.50
21828;BME280;11076;47.942;11.804;2023-05-10T08:12:09;93952.59;;;16.12;92.77
21828;BME280;11076;47.942;11.804;2023-05-10T08:17:11;93957.81;;;16.44;91.01
21828;BME280;11076;47.942;11.804;2023-05-10T08:22:14;93953.94;;;16.09;90.85
21828;BME280;11076;47.942;11.804;2023-05-10T08:27:16;93955.31;;;16.22;91.22
21828;BME280;11076;47.942;11.804;2023-05-10T08:32:18;93962.06;;;16.25;89.73
21828;BME280;11076;47.942;11.804;2023-05-10T08:37:21;93962.13;;;15.40;90.95
21828;BME280;11076;47.942;11.804;2023-05-10T08:42:25;93966.66;;;14.97;95.47
21828;BME280;11076;47.942;11.804;2023-05-10T08:47:30;93962.81;;;14.60;96.11
21828;BME280;11076;47.942;11.804;2023-05-10T08:52:34;93979.97;;;14.32;98.91
21828;BME280;11076;47.942;11.804;2023-05-10T08:57:40;93974.69;;;14.42;99.48
21828;BME280;11076;47.942;11.804;2023-05-10T09:02:43;93970.53;;;14.79;96.31
21828;BME280;11076;47.942;11.804;2023-05-10T09:07:47;93964.91;;;15.50;93.95
21828;BME280;11076;47.942;11.804;2023-05-10T09:12:51;93962.69;;;16.47;93.21
21828;BME280;11076;47.942;11.804;2023-05-10T09:17:54;93960.56;;;16.65;83.10
21828;BME280;11076;47.942;11.804;2023-05-10T09:22:57;93967.72;;;16.23;86.96
21828;BME280;11076;47.942;11.804;2023-05-10T09:27:59;93965.97;;;15.86;91.39
21828;BME280;11076;47.942;11.804;2023-05-10T09:33:02;93969.59;;;15.27;94.76
21828;BME280;11076;47.942;11.804;2023-05-10T09:38:05;93971.19;;;14.64;97.63
21828;BME280;11076;47.942;11.804;2023-05-10T09:43:07;93974.59;;;15.51;97.14
21828;BME280;11076;47.942;11.804;2023-05-10T09:48:10;93977.75;;;16.28;92.71
21828;BME280;11076;47.942;11.804;2023-05-10T09:53:14;93971.84;;;15.78;93.22
21828;BME280;11076;47.942;11.804;2023-05-10T09:58:17;93972.59;;;14.44;96.54
21828;BME280;11076;47.942;11.804;2023-05-10T10:03:20;93979.66;;;13.84;100.00
21828;BME280;11076;47.942;11.804;2023-05-10T10:08:23;93988.25;;;13.81;100.00
21828;BME280;11076;47.942;11.804;2023-05-10T10:13:26;93987.00;;;13.89;100.00
21828;BME280;11076;47.942;11.804;2023-05-10T10:18:30;93980.94;;;14.21;100.00
21828;BME280;11076;47.942;11.804;2023-05-10T10:23:33;93976.34;;;14.98;100.00
21828;BME280;11076;47.942;11.804;2023-05-10T10:28:49;93970.69;;;15.31;96.51
21828;BME280;11076;47.942;11.804;2023-05-10T10:34:03;93961.19;;;16.04;96.44
21828;BME280;11076;47.942;11.804;2023-05-10T10:39:10;93968.13;;;16.73;94.70
21828;BME280;11076;47.942;11.804;2023-05-10T10:49:25;93959.03;;;17.25;92.84
21828;BME280;11076;47.942;11.804;2023-05-10T10:54:28;93964.38;;;16.74;93.03
21828;BME280;11076;47.942;11.804;2023-05-10T10:59:31;93967.97;;;16.12;95.09
21828;BME280;11076;47.942;11.804;2023-05-10T11:04:43;93969.56;;;15.60;95.52
21828;BME280;11076;47.942;11.804;2023-05-10T11:09:48;93973.56;;;15.57;95.27
21828;BME280;11076;47.942;11.804;2023-05-10T11:14:51;93967.97;;;16.12;94.14
21828;BME280;11076;47.942;11.804;2023-05-10T11:20:07;93959.84;;;16.95;91.76
21828;BME280;11076;47.942;11.804;2023-05-10T11:25:10;93965.38;;;18.12;90.09
21828;BME280;11076;47.942;11.804;2023-05-10T11:30:14;93964.25;;;18.83;87.27
21828;BME280;11076;47.942;11.804;2023-05-10T11:35:18;93954.56;;;19.16;83.53
21828;BME280;11076;47.942;11.804;2023-05-10T11:40:23;93965.63;;;18.80;82.42
21828;BME280;11076;47.942;11.804;2023-05-10T11:45:26;93970.69;;;18.42;78.12
21828;BME280;11076;47.942;11.804;2023-05-10T11:50:31;93974.34;;;16.79;82.51
21828;BME280;11076;47.942;11.804;2023-05-10T11:55:33;93987.97;;;15.36;83.99
21828;BME280;11076;47.942;11.804;2023-05-10T12:00:36;93997.38;;;14.46;89.22
21828;BME280;11076;47.942;11.804;2023-05-10T12:05:39;94013.34;;;13.92;91.25
21828;BME280;11076;47.942;11.804;2023-05-10T12:10:44;94012.63;;;13.24;96.13
21828;BME280;11076;47.942;11.804;2023-05-10T12:15:46;94018.06;;;13.12;98.49
21828;BME280;11076;47.942;11.804;2023-05-10T12:20:52;94032.69;;;12.87;99.97
21828;BME280;11076;47.942;11.804;2023-05-10T12:26:02;94025.28;;;12.94;100.00
21828;BME280;11076;47.942;11.804;2023-05-10T12:31:05;94029.03;;;12.93;100.00
21828;BME280;11076;47.942;11.804;2023-05-10T12:36:12;94027.75;;;13.13;100.00
21828;BME280;11076;47.942;11.804;2023-05-10T12:41:17;94044.63;;;12.97;100.00
21828;BME280;11076;47.942;11.804;2023-05-10T12:46:19;94047.34;;;13.13;100.00
21828;BME280;11076;47.942;11.804;2023-05-10T12:51:22;94044.16;;;13.17;100.00
21828;BME280;11076;47.942;11.804;2023-05-10T12:56:24;94049.69;;;13.10;100.00
21828;BME280;11076;47.942;11.804;2023-05-10T13:01:27;94046.19;;;13.26;100.00
21828;BME280;11076;47.942;11.804;2023-05-10T13:06:30;94033.94;;;13.30;100.00
21828;BME280;11076;47.942;11.804;2023-05-10T13:11:33;94040.13;;;13.48;100.00
21828;BME280;11076;47.942;11.804;2023-05-10T13:16:35;94039.81;;;13.44;100.00
21828;BME280;11076;47.942;11.804;2023-05-10T13:21:37;94044.59;;;13.25;100.00
21828;BME280;11076;47.942;11.804;2023-05-10T13:26:40;94044.69;;;13.30;100.00
21828;BME280;11076;47.942;11.804;2023-05-10T13:31:43;94042.13;;;13.07;100.00
21828;BME280;11076;47.942;11.804;2023-05-10T13:36:47;94045.63;;;13.07;100.00
21828;BME280;11076;47.942;11.804;2023-05-10T13:41:50;94049.53;;;13.00;100.00
21828;BME280;11076;47.942;11.804;2023-05-10T13:46:53;94042.50;;;12.99;100.00
21828;BME280;11076;47.942;11.804;2023-05-10T13:51:56;94045.25;;;13.32;100.00
21828;BME280;11076;47.942;11.804;2023-05-10T13:56:58;94040.78;;;13.55;100.00
21828;BME280;11076;47.942;11.804;2023-05-10T14:02:01;94038.72;;;13.62;100.00
21828;BME280;11076;47.942;11.804;2023-05-10T14:07:06;94045.34;;;13.38;100.00
21828;BME280;11076;47.942;11.804;2023-05-10T14:12:08;94045.31;;;13.55;100.00
21828;BME280;11076;47.942;11.804;2023-05-10T14:17:11;94044.94;;;13.46;100.00
21828;BME280;11076;47.942;11.804;2023-05-10T14:22:13;94040.75;;;13.21;100.00
21828;BME280;11076;47.942;11.804;2023-05-10T14:27:16;94039.78;;;13.27;100.00
21828;BME280;11076;47.942;11.804;2023-05-10T14:32:18;94034.41;;;13.27;100.00
21828;BME280;11076;47.942;11.804;2023-05-10T14:37:20;94030.03;;;13.55;100.00
21828;BME280;11076;47.942;11.804;2023-05-10T14:42:23;94041.75;;;13.66;100.00
21828;BME280;11076;47.942;11.804;2023-05-10T14:47:25;94041.97;;;13.81;100.00
21828;BME280;11076;47.942;11.804;2023-05-10T14:52:27;94039.09;;;13.88;100.00
21828;BME280;11076;47.942;11.804;2023-05-10T14:57:30;94041.56;;;13.72;100.00
21828;BME280;11076;47.942;11.804;2023-05-10T15:02:33;94035.50;;;13.43;100.00
21828;BME280;11076;47.942;11.804;2023-05-10T15:07:35;94046.63;;;13.52;100.00
21828;BME280;11076;47.942;11.804;2023-05-10T15:12:38;94055.41;;;13.30;100.00
21828;BME280;11076;47.942;11.804;2023-05-10T15:17:40;94053.13;;;13.05;100.00
21828;BME280;11076;47.942;11.804;2023-05-10T15:22:43;94059.13;;;12.96;100.00
21828;BME280;11076;47.942;11.804;2023-05-10T15:27:45;94069.84;;;12.96;100.00
21828;BME280;11076;47.942;11.804;2023-05-10T15:32:47;94075.69;;;12.92;100.00
21828;BME280;11076;47.942;11.804;2023-05-10T15:37:50;94077.84;;;12.50;100.00
21828;BME280;11076;47.942;11.804;2023-05-10T15:42:52;94078.91;;;12.37;100.00
21828;BME280;11076;47.942;11.804;2023-05-10T15:47:55;94074.44;;;12.14;100.00
21828;BME280;11076;47.942;11.804;2023-05-10T15:52:57;94080.19;;;11.94;100.00
21828;BME280;11076;47.942;11.804;2023-05-10T15:57:59;94089.94;;;12.00;100.00
21828;BME280;11076;47.942;11.804;2023-05-10T16:03:02;94081.88;;;11.88;100.00
21828;BME280;11076;47.942;11.804;2023-05-10T16:08:04;94085.72;;;11.81;100.00
21828;BME280;11076;47.942;11.804;2023-05-10T16:13:07;94090.06;;;11.70;100.00
21828;BME280;11076;47.942;11.804;2023-05-10T16:18:09;94095.63;;;11.68;100.00
21828;BME280;11076;47.942;11.804;2023-05-10T16:23:12;94093.88;;;11.62;100.00
21828;BME280;11076;47.942;11.804;2023-05-10T16:28:16;94099.09;;;11.33;100.00
21828;BME280;11076;47.942;11.804;2023-05-10T16:33:19;94109.69;;;11.28;100.00
21828;BME280;11076;47.942;11.804;2023-05-10T16:38:21;94112.22;;;11.23;100.00
21828;BME280;11076;47.942;11.804;2023-05-10T16:43:24;94115.91;;;11.10;100.00
21828;BME280;11076;47.942;11.804;2023-05-10T16:48:27;94128.19;;;11.00;100.00
21828;BME280;11076;47.942;11.804;2023-05-10T16:53:29;94122.72;;;10.94;100.00
21828;BME280;11076;47.942;11.804;2023-05-10T16:58:34;94129.09;;;10.93;100.00
21828;BME280;11076;47.942;11.804;2023-05-10T17:03:37;94125.41;;;10.94;100.00
21828;BME280;11076;47.942;11.804;2023-05-10T17:08:39;94136.53;;;10.91;100.00
21828;BME280;11076;47.942;11.804;2023-05-10T17:13:42;94134.88;;;10.79;100.00
21828;BME280;11076;47.942;11.804;2023-05-10T17:18:44;94140.75;;;10.69;100.00
21828;BME280;11076;47.942;11.804;2023-05-10T17:23:47;94145.88;;;10.70;100.00
21828;BME280;11076;47.942;11.804;2023-05-10T17:28:51;94150.94;;;10.60;100.00
21828;BME280;11076;47.942;11.804;2023-05-10T17:33:54;94150.84;;;10.48;100.00
21828;BME280;11076;47.942;11.804;2023-05-10T17:38:57;94160.63;;;10.43;100.00
21828;BME280;11076;47.942;11.804;2023-05-10T17:44:00;94158.47;;;10.33;100.00
21828;BME280;11076;47.942;11.804;2023-05-10T17:49:02;94161.16;;;10.26;100.00
21828;BME280;11076;47.942;11.804;2023-05-10T17:54:05;94171.16;;;10.12;100.00
21828;BME280;11076;47.942;11.804;2023-05-10T17:59:08;94174.72;;;10.06;100.00
21828;BME280;11076;47.942;11.804;2023-05-10T18:04:10;94174.97;;;10.05;100.00
21828;BME280;11076;47.942;11.804;2023-05-10T18:09:12;94171.91;;;10.01;100.00
21828;BME280;11076;47.942;11.804;2023-05-10T18:14:15;94173.31;;;10.04;100.00
21828;BME280;11076;47.942;11.804;2023-05-10T18:19:21;94176.19;;;10.02;100.00
21828;BME280;11076;47.942;11.804;2023-05-10T18:24:26;94177.66;;;9.80;100.00
21828;BME280;11076;47.942;11.804;2023-05-10T18:29:38;94190.41;;;9.78;100.00
21828;BME280;11076;47.942;11.804;2023-05-10T18:34:40;94188.16;;;9.74;100.00
21828;BME280;11076;47.942;11.804;2023-05-10T18:39:43;94193.38;;;9.63;100.00
21828;BME280;11076;47.942;11.804;2023-05-10T18:44:45;94202.91;;;9.52;100.00
21828;BME280;11076;47.942;11.804;2023-05-10T18:49:47;94191.91;;;9.42;100.00
21828;BME280;11076;47.942;11.804;2023-05-10T18:54:50;94206.31;;;9.34;100.00
21828;BME280;11076;47.942;11.804;2023-05-10T18:59:52;94207.59;;;9.31;100.00
21828;BME280;11076;47.942;11.804;2023-05-10T19:04:55;94202.72;;;9.22;100.00
21828;BME280;11076;47.942;11.804;2023-05-10T19:10:01;94200.66;;;9.17;100.00
21828;BME280;11076;47.942;11.804;2023-05-10T19:15:03;94205.78;;;9.19;100.00
21828;BME280;11076;47.942;11.804;2023-05-10T19:20:08;94208.13;;;9.08;100.00
21828;BME280;11076;47.942;11.804;2023-05-10T19:25:11;94208.72;;;9.10;100.00
21828;BME280;11076;47.942;11.804;2023-05-10T19:30:14;94204.84;;;9.06;100.00
21828;BME280;11076;47.942;11.804;2023-05-10T19:35:16;94215.97;;;8.96;100.00
21828;BME280;11076;47.942;11.804;2023-05-10T19:40:19;94213.50;;;9.02;100.00
21828;BME280;11076;47.942;11.804;2023-05-10T19:45:21;94213.50;;;9.02;100.00
21828;BME280;11076;47.942;11.804;2023-05-10T19:50:24;94215.13;;;9.03;100.00
21828;BME280;11076;47.942;11.804;2023-05-10T19:55:27;94209.75;;;9.09;100.00
21828;BME280;11076;47.942;11.804;2023-05-10T20:00:30;94220.66;;;9.08;100.00
21828;BME280;11076;47.942;11.804;2023-05-10T20:05:33;94216.97;;;9.02;100.00
21828;BME280;11076;47.942;11.804;2023-05-10T20:10:35;94208.22;;;8.88;100.00
21828;BME280;11076;47.942;11.804;2023-05-10T20:15:37;94214.59;;;8.87;100.00
21828;BME280;11076;47.942;11.804;2023-05-10T20:20:40;94213.16;;;8.85;100.00
21828;BME280;11076;47.942;11.804;2023-05-10T20:25:43;94217.53;;;8.72;100.00
21828;BME280;11076;47.942;11.804;2023-05-10T20:30:45;94217.34;;;8.61;100.00
21828;BME280;11076;47.942;11.804;2023-05-10T20:35:48;94219.41;;;8.59;100.00
21828;BME280;11076;47.942;11.804;2023-05-10T20:40:51;94220.63;;;8.63;100.00
21828;BME280;11076;47.942;11.804;2023-05-10T20:45:54;94215.28;;;8.63;100.00
21828;BME280;11076;47.942;11.804;2023-05-10T20:50:57;94216.59;;;8.53;100.00
21828;BME280;11076;47.942;11.804;2023-05-10T20:55:59;94208.38;;;8.48;100.00
21828;BME280;11076;47.942;11.804;2023-05-10T21:01:01;94202.44;;;8.46;100.00
21828;BME280;11076;47.942;11.804;2023-05-10T21:06:04;94204.28;;;8.52;100.00
21828;BME280;11076;47.942;11.804;2023-05-10T21:11:06;94199.75;;;8.53;100.00
21828;BME280;11076;47.942;11.804;2023-05-10T21:16:08;94202.00;;;8.49;100.00
21828;BME280;11076;47.942;11.804;2023-05-10T21:21:11;94192.81;;;8.45;100.00
21828;BME280;11076;47.942;11.804;2023-05-10T21:26:14;94191.97;;;8.51;100.00
21828;BME280;11076;47.942;11.804;2023-05-10T21:31:17;94194.44;;;8.53;100.00
21828;BME280;11076;47.942;11.804;2023-05-10T21:36:19;94194.22;;;8.54;100.00
21828;BME280;11076;47.942;11.804;2023-05-10T21:41:22;94191.75;;;8.53;100.00
21828;BME280;11076;47.942;11.804;2023-05-10T21:46:24;94192.41;;;8.48;100.00
21828;BME280;11076;47.942;11.804;2023-05-10T21:51:27;94191.19;;;8.44;100.00
21828;BME280;11076;47.942;11.804;2023-05-10T21:56:30;94197.13;;;8.46;100.00
21828;BME280;11076;47.942;11.804;2023-05-10T22:01:32;94195.28;;;8.47;100.00
21828;BME280;11076;47.942;11.804;2023-05-10T22:06:34;94192.81;;;8.45;100.00
21828;BME280;11076;47.942;11.804;2023-05-10T22:11:37;94197.75;;;8.42;100.00
21828;BME280;11076;47.942;11.804;2023-05-10T22:16:39;94190.94;;;8.39;100.00
21828;BME280;11076;47.942;11.804;2023-05-10T22:21:42;94190.34;;;8.37;100.00
21828;BME280;11076;47.942;11.804;2023-05-10T22:26:44;94192.59;;;8.40;100.00
21828;BME280;11076;47.942;11.804;2023-05-10T22:31:46;94198.94;;;8.39;100.00
21828;BME280;11076;47.942;11.804;2023-05-10T22:36:49;94187.50;;;8.25;100.00
21828;BME280;11076;47.942;11.804;2023-05-10T22:41:51;94179.16;;;8.22;100.00
21828;BME280;11076;47.942;11.804;2023-05-10T22:46:54;94183.44;;;8.23;100.00
21828;BME280;11076;47.942;11.804;2023-05-10T22:51:56;94188.34;;;8.26;100.00
21828;BME280;11076;47.942;11.804;2023-05-10T22:56:58;94189.16;;;8.20;100.00
21828;BME280;11076;47.942;11.804;2023-05-10T23:02:01;94185.28;;;8.15;100.00
21828;BME280;11076;47.942;11.804;2023-05-10T23:07:03;94179.78;;;8.10;100.00
21828;BME280;11076;47.942;11.804;2023-05-10T23:12:05;94181.41;;;8.11;100.00
21828;BME280;11076;47.942;11.804;2023-05-10T23:17:08;94175.47;;;8.09;100.00
21828;BME280;11076;47.942;11.804;2023-05-10T23:22:10;94176.50;;;8.08;100.00
21828;BME280;11076;47.942;11.804;2023-05-10T23:27:13;94180.19;;;8.07;100.00
21828;BME280;11076;47.942;11.804;2023-05-10T23:32:15;94183.06;;;8.06;100.00
21828;BME280;11076;47.942;11.804;2023-05-10T23:37:18;94184.91;;;8.05;100.00
21828;BME280;11076;47.942;11.804;2023-05-10T23:42:20;94177.94;;;8.04;100.00
21828;BME280;11076;47.942;11.804;2023-05-10T23:47:23;94172.03;;;8.02;100.00
21828;BME280;11076;47.942;11.804;2023-05-10T23:52:25;94171.63;;;7.92;100.00
21828;BME280;11076;47.942;11.804;2023-05-10T23:57:27;94170.41;;;7.88;100.00
